Terminal Aerodrome Forecast
Issued by NWS

Home | Current Version | Previous Version | Text Only | Print | Product List | Glossary On
Versions: 1 2 3 4 5 6 7 8 9 10 11 12 13 14 15 16 17 18 19 20 21 22 23 24
000
FTUS43 KFGF 212336
TAFDVL
TAF
KDVL 212336Z 2200/2224 31011KT P6SM BKN070
     FM220200 32010KT P6SM SCT120
     FM220800 35009KT P6SM FEW200
     FM221100 02010KT P6SM SCT200
     FM221400 03012KT P6SM BKN100
     FM222000 03015G23KT P6SM OVC025
     FM222300 02013KT P6SM OVC015=

USA.gov is the U.S. government's official web portal to all federal, state and local government web resources and services.